Time;durP1;ratioP1;P1;durP2;ratioP2;P2;SDS_P1;SDS_P2;PMS_P1;PMS_P2;Temp;Humidity;BMP_temperature;BMP_pressure;BME280_temperature;BME280_humidity;BME280_pressure;Samples;Min_cycle;Max_cycle;Signal;HPM_P1;HPM_P2
2022/05/17 00:00:23;;;;;;;18.23;16.33;;;;;;;15.29;100.00;100701.34;5073724;28;20201;-72
2022/05/17 00:02:48;;;;;;;18.43;16.93;;;;;;;15.32;100.00;100703.44;5073803;28;20528;-72
2022/05/17 00:05:14;;;;;;;16.97;15.30;;;;;;;15.30;100.00;100700.22;5073575;28;20182;-72
2022/05/17 00:07:39;;;;;;;18.67;16.80;;;;;;;15.28;100.00;100697.00;5073533;28;20171;-72
2022/05/17 00:10:06;;;;;;;18.43;16.87;;;;;;;15.28;100.00;100710.75;5073690;28;20196;-74
2022/05/17 00:12:32;;;;;;;18.27;16.60;;;;;;;15.32;100.00;100710.88;5073906;28;20171;-72
2022/05/17 00:14:57;;;;;;;19.30;17.53;;;;;;;15.36;100.00;100709.09;5073815;28;20163;-73
2022/05/17 00:17:23;;;;;;;18.43;16.67;;;;;;;15.36;100.00;100711.84;5073517;28;20181;-72
2022/05/17 00:19:48;;;;;;;18.13;16.53;;;;;;;15.38;100.00;100718.63;5073464;28;20175;-72
2022/05/17 00:22:14;;;;;;;18.33;16.63;;;;;;;15.38;100.00;100715.06;5073425;28;20202;-72
2022/05/17 00:24:40;;;;;;;20.47;18.43;;;;;;;15.38;100.00;100723.31;5073399;28;20174;-73
2022/05/17 00:27:05;;;;;;;19.30;17.63;;;;;;;15.39;100.00;100716.66;5072614;28;20171;-73
2022/05/17 00:29:31;;;;;;;20.53;18.80;;;;;;;15.41;100.00;100715.19;5070762;28;20204;-72
2022/05/17 00:31:56;;;;;;;19.67;17.63;;;;;;;15.39;100.00;100722.97;5073321;28;20705;-73
2022/05/17 00:34:23;;;;;;;20.23;18.23;;;;;;;15.40;100.00;100721.03;5073145;28;20179;-72
2022/05/17 00:36:48;;;;;;;20.33;18.73;;;;;;;15.42;100.00;100722.31;5073207;28;20198;-74
2022/05/17 00:39:13;;;;;;;20.07;18.47;;;;;;;15.43;100.00;100723.91;5073076;28;20263;-72
2022/05/17 00:41:39;;;;;;;20.27;18.43;;;;;;;15.45;100.00;100716.13;5072197;28;20202;-75
2022/05/17 00:47:12;;;;;;;19.70;17.67;;;;;;;15.38;100.00;100720.56;5073292;28;20178;-72
2022/05/17 00:49:42;;;;;;;19.67;18.03;;;;;;;15.35;100.00;100722.06;5071581;28;20209;-72
2022/05/17 00:52:12;;;;;;;18.97;17.27;;;;;;;15.34;100.00;100723.19;5072932;28;20175;-72
2022/05/17 00:54:40;;;;;;;21.20;19.30;;;;;;;15.29;100.00;100719.81;5073138;28;20264;-73
2022/05/17 00:57:17;;;;;;;19.67;17.83;;;;;;;15.24;100.00;100720.84;5072631;28;20212;-73
2022/05/17 00:59:44;;;;;;;19.83;18.03;;;;;;;15.26;100.00;100712.25;5072887;28;20192;-72
2022/05/17 01:02:10;;;;;;;20.60;18.50;;;;;;;15.27;100.00;100714.66;5072945;28;20267;-73
2022/05/17 01:04:37;;;;;;;19.60;17.90;;;;;;;15.28;100.00;100713.50;5072262;28;20179;-74
2022/05/17 01:07:07;;;;;;;21.60;19.50;;;;;;;15.29;100.00;100726.13;5072581;28;20182;-73
2022/05/17 01:09:32;;;;;;;26.37;20.30;;;;;;;15.26;100.00;100713.03;5072581;28;20179;-73
2022/05/17 01:11:57;;;;;;;20.37;18.27;;;;;;;15.22;100.00;100714.88;5072620;28;20645;-72
2022/05/17 01:15:23;;;;;;;19.93;17.97;;;;;;;15.18;100.00;100711.16;5072545;28;20179;-72
2022/05/17 01:17:18;;;;;;;19.63;17.87;;;;;;;15.11;100.00;100717.22;5058723;28;20557;-74
2022/05/17 01:19:44;;;;;;;19.57;17.57;;;;;;;15.10;100.00;100710.09;5072376;28;20174;-72
2022/05/17 01:22:10;;;;;;;17.73;15.73;;;;;;;15.09;100.00;100714.00;5072263;28;20673;-74
2022/05/17 01:24:36;;;;;;;19.33;17.17;;;;;;;15.05;100.00;100715.81;5072317;28;20183;-71
2022/05/17 01:27:09;;;;;;;21.33;17.87;;;;;;;15.07;100.00;100718.22;5072391;28;20296;-72
2022/05/17 01:29:40;;;;;;;19.50;17.50;;;;;;;15.06;100.00;100708.34;5072205;28;20202;-73
2022/05/17 01:32:09;;;;;;;18.00;16.33;;;;;;;15.05;100.00;100706.75;5071966;28;20526;-72
2022/05/17 01:34:35;;;;;;;17.97;15.80;;;;;;;15.06;100.00;100706.41;5072124;28;20645;-73
2022/05/17 01:37:01;;;;;;;21.80;16.90;;;;;;;15.06;100.00;100711.09;5070642;28;20206;-72
2022/05/17 01:39:28;;;;;;;16.70;15.23;;;;;;;15.03;100.00;100711.75;5071817;28;20194;-76
2022/05/17 01:41:53;;;;;;;18.23;16.43;;;;;;;15.01;100.00;100700.28;5071815;28;20209;-73
2022/05/17 01:44:19;;;;;;;16.13;14.77;;;;;;;14.97;100.00;100705.66;5071766;28;20182;-71
2022/05/17 01:46:44;;;;;;;18.47;15.27;;;;;;;14.95;100.00;100707.94;5071802;28;20182;-72
2022/05/17 01:49:10;;;;;;;17.97;16.33;;;;;;;14.94;100.00;100706.31;5071689;28;20526;-72
2022/05/17 01:51:35;;;;;;;18.80;16.73;;;;;;;14.95;100.00;100707.13;5071687;28;20175;-72
2022/05/17 01:54:01;;;;;;;18.33;15.87;;;;;;;14.93;100.00;100696.47;5071933;28;20563;-72
2022/05/17 01:56:26;;;;;;;19.20;17.40;;;;;;;14.93;100.00;100701.97;5070290;28;20177;-75
2022/05/17 01:58:52;;;;;;;23.37;17.50;;;;;;;14.92;100.00;100696.81;5071471;28;20205;-74
2022/05/17 02:01:17;;;;;;;15.93;14.33;;;;;;;14.91;100.00;100696.00;5071454;28;20202;-73
2022/05/17 02:03:42;;;;;;;19.00;16.90;;;;;;;14.89;100.00;100693.56;5071303;28;20181;-72
2022/05/17 02:06:08;;;;;;;17.67;15.47;;;;;;;14.87;100.00;100690.34;5071430;28;20186;-72
2022/05/17 02:08:33;;;;;;;21.20;19.10;;;;;;;14.87;100.00;100695.84;5071258;28;20288;-72
2022/05/17 02:10:59;;;;;;;25.13;17.67;;;;;;;14.84;100.00;100688.25;5068430;28;20182;-73
2022/05/17 02:13:25;;;;;;;17.43;16.00;;;;;;;14.84;100.00;100690.22;5062720;28;20190;-74
2022/05/17 02:15:50;;;;;;;20.30;18.07;;;;;;;14.83;100.00;100694.09;5071126;28;20277;-74
2022/05/17 02:18:16;;;;;;;21.13;18.90;;;;;;;14.82;100.00;100696.03;5070935;28;20268;-72
2022/05/17 02:20:41;;;;;;;23.07;17.70;;;;;;;14.79;100.00;100691.22;5071230;28;20205;-71
2022/05/17 02:23:07;;;;;;;21.50;18.83;;;;;;;14.77;100.00;100690.75;5072025;28;20210;-72
2022/05/17 02:25:36;;;;;;;21.97;17.27;;;;;;;14.76;100.00;100682.84;5073774;28;20167;-72
2022/05/17 02:28:03;;;;;;;15.90;14.07;;;;;;;14.71;100.00;100686.56;5071240;28;20630;-71
2022/05/17 02:30:29;;;;;;;26.00;18.53;;;;;;;14.68;100.00;100683.69;5071013;28;20203;-72
2022/05/17 02:32:54;;;;;;;18.80;15.83;;;;;;;14.64;100.00;100683.53;5071110;28;20562;-72
2022/05/17 02:35:20;;;;;;;24.10;19.50;;;;;;;14.62;100.00;100682.28;5071326;28;20577;-73
2022/05/17 02:37:45;;;;;;;23.20;17.53;;;;;;;14.58;100.00;100684.84;5070950;28;20265;-72
2022/05/17 02:40:11;;;;;;;17.57;15.93;;;;;;;14.59;100.00;100675.47;5071079;28;20404;-72
2022/05/17 02:42:36;;;;;;;18.93;17.20;;;;;;;14.61;100.00;100688.88;5070928;28;20232;-72
2022/05/17 02:45:02;;;;;;;17.23;15.53;;;;;;;14.63;100.00;100681.94;5070856;28;20197;-72
2022/05/17 02:47:27;;;;;;;15.70;13.33;;;;;;;14.65;100.00;100685.16;5070682;28;20175;-72
2022/05/17 02:49:53;;;;;;;16.57;14.80;;;;;;;14.65;100.00;100687.91;5071129;28;20179;-72
2022/05/17 02:52:18;;;;;;;17.73;15.93;;;;;;;14.63;100.00;100689.38;5071038;28;20440;-72
2022/05/17 02:54:43;;;;;;;18.03;16.30;;;;;;;14.59;100.00;100694.72;5070957;28;20182;-73
2022/05/17 02:57:09;;;;;;;18.93;14.37;;;;;;;14.56;100.00;100693.44;5070637;28;20223;-71
2022/05/17 02:59:35;;;;;;;18.50;15.10;;;;;;;14.54;100.00;100700.41;5071003;28;20185;-72
2022/05/17 03:02:01;;;;;;;17.37;15.67;;;;;;;14.56;100.00;100698.13;5070590;28;20688;-72
2022/05/17 03:04:27;;;;;;;19.50;15.83;;;;;;;14.58;100.00;100704.91;5070023;28;20178;-73
2022/05/17 03:06:56;;;;;;;28.40;18.83;;;;;;;14.58;100.00;100698.59;5071127;28;20183;-71
2022/05/17 03:09:22;;;;;;;15.40;13.63;;;;;;;14.61;100.00;100705.38;5070571;28;20721;-72
2022/05/17 03:11:47;;;;;;;20.53;16.13;;;;;;;14.62;100.00;100705.06;5070619;28;20257;-72
2022/05/17 03:14:17;;;;;;;26.07;17.53;;;;;;;14.61;100.00;100710.88;5070517;28;20657;-73
2022/05/17 03:16:42;;;;;;;22.97;18.37;;;;;;;14.59;100.00;100711.22;5070564;28;20637;-72
2022/05/17 03:19:08;;;;;;;21.73;18.83;;;;;;;14.56;100.00;100706.38;5070600;28;20174;-72
2022/05/17 03:21:33;;;;;;;21.30;18.50;;;;;;;14.55;100.00;100713.03;5070397;28;20304;-73
2022/05/17 03:23:59;;;;;;;22.33;18.73;;;;;;;14.49;100.00;100719.88;5070691;28;20524;-72
2022/05/17 03:26:25;;;;;;;21.33;19.30;;;;;;;14.46;100.00;100720.50;5070527;28;20186;-72
2022/05/17 03:28:50;;;;;;;24.67;19.77;;;;;;;14.44;100.00;100723.59;5070286;28;20266;-72
2022/05/17 03:31:16;;;;;;;20.97;18.47;;;;;;;14.46;100.00;100728.75;5070348;28;20186;-72
2022/05/17 03:33:41;;;;;;;27.47;18.63;;;;;;;14.45;100.00;100733.44;5070509;28;20171;-72
2022/05/17 03:36:08;;;;;;;20.87;18.90;;;;;;;14.46;100.00;100732.31;5070414;28;20183;-72
2022/05/17 03:38:37;;;;;;;28.10;18.60;;;;;;;14.50;100.00;100737.97;5068952;28;20265;-71
2022/05/17 03:41:03;;;;;;;27.10;19.67;;;;;;;14.53;100.00;100737.31;5070246;28;20199;-72
2022/05/17 03:43:29;;;;;;;20.70;18.13;;;;;;;14.54;100.00;100742.47;5070232;28;20185;-72
2022/05/17 03:45:55;;;;;;;32.50;19.63;;;;;;;14.58;100.00;100745.34;5070295;28;20171;-71
2022/05/17 03:48:22;;;;;;;22.67;19.27;;;;;;;14.62;100.00;100749.06;5070237;28;20178;-73
2022/05/17 03:50:47;;;;;;;19.80;17.80;;;;;;;14.63;100.00;100750.69;5070509;28;20178;-72
2022/05/17 03:53:13;;;;;;;20.87;18.37;;;;;;;14.63;100.00;100753.44;5070215;28;20171;-72
2022/05/17 03:55:39;;;;;;;21.23;19.00;;;;;;;14.65;100.00;100759.41;5070441;28;20388;-72
2022/05/17 03:58:04;;;;;;;18.33;15.57;;;;;;;14.69;100.00;100760.34;5070097;28;20257;-71
2022/05/17 04:00:29;;;;;;;23.20;18.20;;;;;;;14.69;100.00;100754.84;5070051;28;20202;-72
2022/05/17 04:02:55;;;;;;;22.93;20.07;;;;;;;14.73;100.00;100758.53;5066048;28;20194;-74
2022/05/17 04:05:20;;;;;;;20.90;17.60;;;;;;;14.76;100.00;100765.34;5069793;28;20189;-72
2022/05/17 04:07:46;;;;;;;22.43;18.17;;;;;;;14.77;100.00;100758.72;5070262;28;20198;-72
2022/05/17 04:10:13;;;;;;;28.10;19.47;;;;;;;14.76;100.00;100759.84;5070451;28;20175;-72
2022/05/17 04:12:39;;;;;;;21.27;18.80;;;;;;;14.74;100.00;100771.16;5070040;28;20665;-72
2022/05/17 04:15:07;;;;;;;32.20;15.10;;;;;;;14.73;100.00;100766.00;5070057;28;20182;-72
2022/05/17 04:17:33;;;;;;;20.90;18.37;;;;;;;14.72;100.00;100772.63;5072742;28;20174;-72
2022/05/17 04:19:59;;;;;;;22.97;18.63;;;;;;;14.75;100.00;100769.22;5073438;28;20171;-72
2022/05/17 04:22:25;;;;;;;23.73;17.13;;;;;;;14.76;100.00;100766.16;5073760;28;20182;-72
2022/05/17 04:24:57;;;;;;;26.23;17.60;;;;;;;14.75;100.00;100767.25;5073628;28;20174;-72
2022/05/17 04:27:23;;;;;;;20.37;17.93;;;;;;;14.78;100.00;100763.06;5073373;28;20166;-73
2022/05/17 04:29:49;;;;;;;20.20;18.30;;;;;;;14.78;100.00;100763.06;5073454;28;20201;-73
2022/05/17 04:32:14;;;;;;;23.33;17.67;;;;;;;14.77;100.00;100770.50;5073424;28;20269;-72
2022/05/17 04:34:39;;;;;;;23.83;16.87;;;;;;;14.78;100.00;100765.81;5073283;28;20177;-72
2022/05/17 04:37:05;;;;;;;19.50;15.63;;;;;;;14.75;100.00;100778.28;5073113;28;20175;-73
2022/05/17 04:39:30;;;;;;;18.13;16.23;;;;;;;14.74;100.00;100773.91;5073463;28;20269;-72
2022/05/17 04:41:56;;;;;;;16.40;14.73;;;;;;;14.74;100.00;100778.59;5073097;28;20260;-72
2022/05/17 04:44:22;;;;;;;18.93;17.03;;;;;;;14.77;100.00;100776.03;5072913;28;20182;-72
2022/05/17 04:46:47;;;;;;;19.50;16.43;;;;;;;14.80;100.00;100774.53;5073373;28;20179;-73
2022/05/17 04:49:12;;;;;;;17.73;16.13;;;;;;;14.83;100.00;100776.63;5072854;28;20186;-73
2022/05/17 04:51:38;;;;;;;17.47;15.97;;;;;;;14.84;100.00;100779.03;5072951;28;20181;-78
2022/05/17 04:54:03;;;;;;;16.37;14.80;;;;;;;14.84;100.00;100781.78;5068069;28;20186;-72
2022/05/17 04:56:29;;;;;;;16.80;15.10;;;;;;;14.85;100.00;100788.09;5070628;28;20270;-72
2022/05/17 04:58:54;;;;;;;17.60;14.63;;;;;;;14.83;100.00;100785.69;5070603;28;20182;-72
2022/05/17 05:01:21;;;;;;;15.73;14.07;;;;;;;14.82;100.00;100786.81;5072230;28;20301;-72
2022/05/17 05:03:47;;;;;;;17.67;16.00;;;;;;;14.82;100.00;100799.78;5072198;28;20169;-72
2022/05/17 05:06:12;;;;;;;15.90;14.40;;;;;;;14.79;100.00;100795.75;5067563;28;20175;-72
2022/05/17 05:08:38;;;;;;;16.37;14.87;;;;;;;14.74;100.00;100795.91;5072692;28;20186;-73
2022/05/17 05:11:03;;;;;;;16.30;14.80;;;;;;;14.71;100.00;100796.56;5072431;28;20181;-73
2022/05/17 05:13:28;;;;;;;17.27;15.90;;;;;;;14.71;100.00;100802.06;5072457;28;20178;-72
2022/05/17 05:15:55;;;;;;;15.53;14.03;;;;;;;14.73;100.00;100801.75;5072226;28;20389;-72
2022/05/17 05:18:20;;;;;;;15.60;14.03;;;;;;;14.80;100.00;100800.09;5072577;28;20170;-72
2022/05/17 05:20:46;;;;;;;17.70;15.73;;;;;;;14.91;100.00;100805.25;5072535;28;20339;-73
2022/05/17 05:23:12;;;;;;;15.03;13.50;;;;;;;15.03;100.00;100799.81;5072448;28;20630;-72
2022/05/17 05:25:39;;;;;;;14.43;11.53;;;;;;;15.15;100.00;100808.16;5072276;28;20602;-73
2022/05/17 05:28:07;;;;;;;14.93;12.87;;;;;;;15.26;100.00;100816.84;5071815;28;20171;-72
2022/05/17 05:30:33;;;;;;;14.30;12.87;;;;;;;15.32;100.00;100816.31;5072179;28;20186;-72
2022/05/17 05:32:58;;;;;;;17.33;13.13;;;;;;;15.41;100.00;100817.06;5072101;28;20171;-72
2022/05/17 05:35:25;;;;;;;14.77;13.20;;;;;;;15.50;100.00;100825.28;5072058;28;20178;-73
2022/05/17 05:37:51;;;;;;;15.17;13.63;;;;;;;15.56;100.00;100818.41;5071820;28;20265;-72
2022/05/17 05:40:16;;;;;;;14.47;13.10;;;;;;;15.65;100.00;100816.44;5071989;28;20590;-73
2022/05/17 05:42:42;;;;;;;12.90;11.63;;;;;;;15.76;100.00;100816.81;5071985;28;20178;-73
2022/05/17 05:45:09;;;;;;;12.30;9.50;;;;;;;15.77;100.00;100811.00;5071679;28;20188;-72
2022/05/17 05:47:35;;;;;;;11.30;9.97;;;;;;;15.87;100.00;100814.47;5071761;28;20179;-72
2022/05/17 05:50:01;;;;;;;11.77;10.33;;;;;;;15.97;100.00;100822.31;5072389;28;20232;-74
2022/05/17 05:52:26;;;;;;;10.87;9.77;;;;;;;16.12;100.00;100823.66;5071787;28;20563;-72
2022/05/17 05:54:51;;;;;;;10.37;8.50;;;;;;;16.14;100.00;100822.16;5072007;28;20181;-73
2022/05/17 05:57:17;;;;;;;12.87;8.97;;;;;;;16.13;100.00;100833.53;5073126;28;20176;-73
2022/05/17 05:59:43;;;;;;;10.53;9.10;;;;;;;16.17;100.00;100831.69;5073546;28;20474;-72
2022/05/17 06:02:10;;;;;;;13.03;8.97;;;;;;;16.14;100.00;100835.13;5071642;28;20220;-72
2022/05/17 06:04:35;;;;;;;9.17;8.37;;;;;;;16.17;100.00;100832.50;5071466;28;20174;-72
2022/05/17 06:07:01;;;;;;;10.33;8.37;;;;;;;16.24;100.00;100837.47;5071634;28;20261;-72
2022/05/17 06:09:26;;;;;;;9.80;9.00;;;;;;;16.28;100.00;100843.91;5071393;28;20190;-72
2022/05/17 06:11:52;;;;;;;10.73;8.37;;;;;;;16.36;100.00;100841.06;5071413;28;20585;-75
2022/05/17 06:14:20;;;;;;;8.87;8.10;;;;;;;16.40;100.00;100840.38;5071341;28;20200;-72
2022/05/17 06:16:49;;;;;;;10.97;9.23;;;;;;;16.47;100.00;100849.69;5070886;28;20198;-71
2022/05/17 06:19:15;;;;;;;11.27;8.07;;;;;;;16.48;100.00;100859.59;5071126;28;20175;-72
2022/05/17 06:21:41;;;;;;;11.47;7.13;;;;;;;16.43;100.00;100854.28;5071350;28;20293;-72
2022/05/17 06:24:06;;;;;;;8.30;7.53;;;;;;;16.47;100.00;100855.22;5071170;28;20336;-72
2022/05/17 06:26:32;;;;;;;10.07;7.23;;;;;;;16.51;100.00;100858.13;5071086;28;20215;-72
2022/05/17 06:28:57;;;;;;;9.87;7.83;;;;;;;16.54;100.00;100849.16;5070905;28;20171;-72
2022/05/17 06:31:23;;;;;;;8.93;7.60;;;;;;;16.55;100.00;100851.56;5071026;28;20171;-72
2022/05/17 06:33:48;;;;;;;9.37;8.37;;;;;;;16.58;100.00;100850.88;5071017;28;20642;-72
2022/05/17 06:36:14;;;;;;;9.57;7.80;;;;;;;16.65;100.00;100855.84;5071222;28;20422;-72
2022/05/17 06:38:39;;;;;;;9.07;8.20;;;;;;;16.81;100.00;100853.25;5070784;28;20611;-72
2022/05/17 06:41:05;;;;;;;7.53;6.83;;;;;;;16.83;100.00;100856.47;5070834;28;20197;-72
2022/05/17 06:43:34;;;;;;;7.77;6.23;;;;;;;16.93;100.00;100853.28;5070828;28;20186;-72
2022/05/17 06:46:03;;;;;;;7.67;6.77;;;;;;;17.05;100.00;100860.72;5070972;28;20610;-72
2022/05/17 06:48:30;;;;;;;10.33;6.20;;;;;;;17.16;99.21;100861.88;5070738;28;20183;-73
2022/05/17 06:51:01;;;;;;;8.40;5.50;;;;;;;17.24;98.00;100859.03;5070807;28;20170;-72
2022/05/17 06:53:26;;;;;;;9.00;5.03;;;;;;;17.24;96.90;100870.06;5070765;28;20535;-73
2022/05/17 06:55:52;;;;;;;7.50;6.00;;;;;;;17.30;96.36;100867.88;5070825;28;20182;-73
2022/05/17 06:58:17;;;;;;;8.80;6.33;;;;;;;17.38;96.47;100872.47;5070722;28;20223;-72
2022/05/17 07:00:42;;;;;;;1.67;1.57;;;;;;;17.37;95.92;100865.34;5070488;28;20661;-72
2022/05/17 07:03:09;;;;;;;4.00;2.33;;;;;;;17.44;95.79;100867.50;5070771;28;20178;-72
2022/05/17 07:05:34;;;;;;;0.63;0.63;;;;;;;17.53;96.20;100868.19;5070669;28;20269;-72
2022/05/17 07:08:01;;;;;;;2.13;2.03;;;;;;;17.52;95.33;100872.13;5070525;28;20270;-71
2022/05/17 07:13:13;;;;;;;5.73;4.37;;;;;;;17.45;95.09;100872.69;5070635;28;20216;-72
2022/05/17 07:15:49;;;;;;;1.87;1.77;;;;;;;17.48;95.36;100877.50;5070283;28;20189;-72
2022/05/17 07:18:21;;;;;;;5.80;4.50;;;;;;;17.51;93.69;100876.03;5070271;28;20585;-72
2022/05/17 07:20:47;;;;;;;7.13;4.37;;;;;;;17.59;94.47;100872.31;5070454;28;20190;-72
2022/05/17 07:23:14;;;;;;;8.77;2.50;;;;;;;17.57;94.00;100873.84;5070541;28;20234;-71
2022/05/17 07:25:40;;;;;;;1.63;1.53;;;;;;;17.50;93.20;100875.22;5070444;28;20162;-72
2022/05/17 07:28:07;;;;;;;0.00;0.00;;;;;;;17.64;93.08;100882.31;5070289;28;20171;-73
2022/05/17 07:30:33;;;;;;;0.00;0.00;;;;;;;17.74;92.66;100879.13;5069468;28;20197;-71
2022/05/17 07:32:58;;;;;;;0.47;0.47;;;;;;;17.80;90.32;100883.25;5070492;28;20171;-73
2022/05/17 07:35:24;;;;;;;0.20;0.20;;;;;;;17.87;91.15;100886.22;5070372;28;20202;-72
2022/05/17 07:37:49;;;;;;;7.10;1.40;;;;;;;17.83;91.58;100888.09;5070240;28;20163;-73
2022/05/17 07:40:15;;;;;;;0.00;0.00;;;;;;;17.83;92.93;100886.13;5070185;28;20178;-72
2022/05/17 07:42:40;;;;;;;0.00;0.00;;;;;;;18.02;93.77;100890.22;5070409;28;20468;-71
2022/05/17 07:45:08;;;;;;;0.00;0.00;;;;;;;18.09;90.82;100893.19;5070214;28;20503;-72
2022/05/17 07:47:33;;;;;;;0.50;0.50;;;;;;;18.17;89.50;100886.69;5070207;28;20177;-72
2022/05/17 07:49:59;;;;;;;0.80;0.80;;;;;;;18.35;89.89;100884.44;5071005;28;20253;-73
2022/05/17 07:52:25;;;;;;;0.70;0.70;;;;;;;18.35;87.94;100888.00;5072683;28;20648;-74
2022/05/17 07:54:50;;;;;;;0.70;0.63;;;;;;;18.40;89.17;100878.66;5074032;28;20178;-74
2022/05/17 07:57:15;;;;;;;0.20;0.20;;;;;;;18.61;92.00;100882.00;5074116;28;20174;-71
2022/05/17 07:59:41;;;;;;;0.10;0.10;;;;;;;18.68;88.52;100882.22;5073961;28;20175;-72
2022/05/17 08:02:06;;;;;;;0.00;0.00;;;;;;;18.77;86.59;100882.03;5069103;28;20301;-72
2022/05/17 08:04:32;;;;;;;0.50;0.50;;;;;;;18.86;86.67;100881.88;5073508;28;20261;-73
2022/05/17 08:06:58;;;;;;;4.10;1.23;;;;;;;18.90;87.72;100880.00;5073971;28;20280;-72
2022/05/17 08:09:26;;;;;;;0.30;0.30;;;;;;;18.89;86.61;100873.66;5073959;28;20190;-73
2022/05/17 08:11:52;;;;;;;10.30;2.53;;;;;;;19.02;87.57;100885.44;5073749;28;20166;-72
2022/05/17 08:14:18;;;;;;;2.20;2.10;;;;;;;18.80;86.67;100880.50;5073580;28;20182;-72
2022/05/17 08:16:44;;;;;;;1.00;0.97;;;;;;;18.72;86.85;100887.84;5073110;28;20193;-72
2022/05/17 08:19:10;;;;;;;0.23;0.23;;;;;;;18.88;86.91;100885.09;5073435;28;20221;-72
2022/05/17 08:21:36;;;;;;;0.50;0.37;;;;;;;18.99;85.28;100884.19;5073319;28;20206;-73
2022/05/17 08:24:02;;;;;;;3.07;2.53;;;;;;;19.15;85.28;100884.19;5073712;28;20212;-71
2022/05/17 08:29:12;;;;;;;0.57;0.53;;;;;;;19.40;81.03;100889.53;5073641;28;20208;-71
2022/05/17 08:31:38;;;;;;;0.20;0.20;;;;;;;19.44;79.20;100891.22;5073236;28;20288;-72
2022/05/17 08:34:03;;;;;;;1.37;1.30;;;;;;;19.64;79.93;100885.75;5073571;28;20279;-72
2022/05/17 08:36:29;;;;;;;0.43;0.43;;;;;;;19.64;79.69;100882.97;5073232;28;20522;-72
2022/05/17 08:38:54;;;;;;;0.00;0.00;;;;;;;19.72;79.67;100893.06;5073467;28;20698;-74
2022/05/17 08:41:26;;;;;;;0.10;0.10;;;;;;;19.94;81.00;100889.56;5073177;28;20647;-73
2022/05/17 08:44:03;;;;;;;3.10;0.90;;;;;;;19.72;79.11;100895.84;5073171;28;20695;-74
2022/05/17 08:46:55;;;;;;;0.57;0.57;;;;;;;19.63;79.71;100889.69;5072957;28;20664;-73
2022/05/17 08:49:27;;;;;;;0.00;0.00;;;;;;;19.60;79.81;100886.47;5041494;28;20718;-73
2022/05/17 08:51:57;;;;;;;0.47;0.47;;;;;;;19.89;79.96;100899.00;5072961;28;20266;-73
2022/05/17 08:54:30;;;;;;;4.53;1.33;;;;;;;19.93;78.09;100893.50;5072830;28;20180;-71
2022/05/17 08:57:29;;;;;;;3.53;2.63;;;;;;;19.96;77.72;100895.56;5072628;28;20240;-73
2022/05/17 08:59:56;;;;;;;0.30;0.30;;;;;;;19.94;77.32;100891.53;5072858;28;20269;-72
2022/05/17 09:02:50;;;;;;;0.00;0.00;;;;;;;19.97;76.46;100897.19;5071939;28;20209;-72
2022/05/17 09:05:21;;;;;;;2.10;1.43;;;;;;;19.96;75.42;100903.88;5072258;28;20194;-72
2022/05/17 09:07:54;;;;;;;25.57;2.07;;;;;;;19.83;75.15;100889.38;5072425;28;20228;-72
2022/05/17 09:10:36;;;;;;;1.53;1.33;;;;;;;19.94;74.32;100900.66;5072697;28;20163;-71
2022/05/17 09:13:10;;;;;;;3.13;1.07;;;;;;;20.09;73.79;100897.03;5072595;28;20261;-72
2022/05/17 09:15:36;;;;;;;7.40;2.40;;;;;;;20.08;72.19;100903.75;5072154;28;20182;-71
2022/05/17 09:18:07;;;;;;;0.93;0.73;;;;;;;20.15;72.47;100906.69;5072313;28;20186;-72
2022/05/17 09:20:34;;;;;;;0.60;0.60;;;;;;;20.27;73.20;100911.28;5072325;28;20198;-74
2022/05/17 09:22:59;;;;;;;7.83;1.47;;;;;;;20.34;71.70;100907.84;5072045;28;20175;-71
2022/05/17 09:25:44;;;;;;;6.13;1.33;;;;;;;20.36;72.09;100905.50;5070449;28;20174;-72
2022/05/17 09:28:10;;;;;;;4.77;0.67;;;;;;;20.28;70.90;100904.56;5071786;28;20618;-72
2022/05/17 09:30:38;;;;;;;5.03;1.47;;;;;;;20.30;70.83;100912.53;5071658;28;20201;-72
2022/05/17 09:33:08;;;;;;;3.70;0.97;;;;;;;20.38;69.03;100915.06;5071662;28;20182;-72
2022/05/17 09:35:55;;;;;;;5.93;1.93;;;;;;;20.44;68.60;100912.84;5071654;28;20175;-72
2022/05/17 09:38:20;;;;;;;1.00;0.87;;;;;;;20.53;69.27;100910.59;5071413;28;20171;-72
2022/05/17 09:40:50;;;;;;;0.10;0.10;;;;;;;20.64;68.83;100916.38;5071485;28;20205;-72
2022/05/17 09:43:16;;;;;;;1.43;0.60;;;;;;;20.78;69.98;100919.41;5071488;28;20198;-72
2022/05/17 09:45:48;;;;;;;0.20;0.20;;;;;;;20.85;66.51;100910.44;5071479;28;20171;-72
2022/05/17 09:54:36;;;;;;;0.20;0.20;;;;;;;20.52;66.42;100917.34;5071317;28;20680;-72
2022/05/17 09:57:24;;;;;;;0.20;0.20;;;;;;;20.56;67.46;100917.44;5071034;28;20627;-71
2022/05/17 09:59:54;;;;;;;0.43;0.43;;;;;;;20.67;67.75;100919.22;5071177;28;20700;-71
2022/05/17 10:02:32;;;;;;;9.10;1.07;;;;;;;20.81;64.63;100910.34;5071109;28;20690;-72
2022/05/17 10:05:00;;;;;;;0.73;0.73;;;;;;;20.96;64.43;100905.84;5070935;28;20167;-71
2022/05/17 10:07:30;;;;;;;1.03;0.83;;;;;;;21.15;63.96;100903.00;5070715;28;20653;-72
2022/05/17 10:09:55;;;;;;;2.43;0.53;;;;;;;21.20;61.18;100911.03;5071135;28;20182;-71
2022/05/17 10:12:31;;;;;;;0.10;0.10;;;;;;;21.32;61.90;100912.84;5071041;28;20182;-72
2022/05/17 10:15:02;;;;;;;20.70;2.97;;;;;;;21.37;61.21;100910.53;5069938;28;20175;-71
2022/05/17 10:17:49;;;;;;;0.50;0.50;;;;;;;21.55;60.28;100907.22;5070667;28;20162;-72
2022/05/17 10:20:26;;;;;;;0.53;0.43;;;;;;;21.51;57.47;100911.94;5070794;28;20279;-73
2022/05/17 10:23:01;;;;;;;2.40;0.87;;;;;;;21.71;57.68;100909.84;5070720;28;20218;-72
2022/05/17 10:25:33;;;;;;;0.23;0.20;;;;;;;21.62;55.29;100905.34;5070655;28;20527;-72
2022/05/17 10:28:11;;;;;;;0.47;0.47;;;;;;;21.64;57.34;100897.44;5070448;28;20180;-72
2022/05/17 10:30:48;;;;;;;3.47;1.00;;;;;;;21.82;57.43;100896.88;5070565;28;20634;-71
2022/05/17 10:33:26;;;;;;;0.57;0.57;;;;;;;21.74;57.18;100895.19;5070676;28;20697;-72
2022/05/17 10:35:58;;;;;;;4.43;0.77;;;;;;;21.93;58.15;100893.06;5070600;28;20174;-72
2022/05/17 10:38:34;;;;;;;0.37;0.37;;;;;;;21.98;59.99;100892.72;5070668;28;20529;-72
2022/05/17 10:41:05;;;;;;;0.33;0.33;;;;;;;22.09;57.26;100894.88;5070845;28;20202;-72
2022/05/17 10:43:36;;;;;;;0.77;0.50;;;;;;;22.04;57.77;100893.22;5070114;28;20218;-72
2022/05/17 10:46:09;;;;;;;0.23;0.23;;;;;;;22.25;57.05;100901.84;5070508;28;20171;-72
2022/05/17 10:48:50;;;;;;;0.20;0.20;;;;;;;22.43;56.13;100898.47;5066736;28;20203;-72
2022/05/17 10:51:24;;;;;;;0.00;0.00;;;;;;;22.39;54.86;100898.41;5065196;28;20262;-73
2022/05/17 10:54:01;;;;;;;0.57;0.50;;;;;;;22.71;54.46;100898.78;5070409;28;20234;-73
2022/05/17 10:56:55;;;;;;;0.30;0.30;;;;;;;22.78;52.93;100890.47;5070817;28;20243;-72
2022/05/17 10:59:49;;;;;;;0.53;0.53;;;;;;;22.92;53.85;100892.63;5061505;28;20214;-73
2022/05/17 11:02:23;;;;;;;0.10;0.10;;;;;;;22.88;54.45;100894.59;5070242;28;20286;-72
2022/05/17 11:05:13;;;;;;;0.00;0.00;;;;;;;22.55;52.83;100899.00;5071085;28;20170;-73
2022/05/17 11:08:01;;;;;;;0.20;0.20;;;;;;;22.59;52.07;100892.69;5070559;28;20696;-72
2022/05/17 11:10:49;;;;;;;0.00;0.00;;;;;;;22.45;51.08;100883.00;5069379;28;20713;-73
2022/05/17 11:13:35;;;;;;;0.20;0.20;;;;;;;22.52;51.27;100887.81;5071200;28;20237;-72
2022/05/17 11:16:30;;;;;;;0.17;0.17;;;;;;;22.35;51.17;100880.88;5070746;28;20166;-72
2022/05/17 11:19:06;;;;;;;0.30;0.30;;;;;;;22.44;52.63;100888.94;5068076;28;20644;-73
2022/05/17 11:21:42;;;;;;;0.00;0.00;;;;;;;22.22;52.24;100893.44;5070502;28;20683;-73
2022/05/17 11:24:29;;;;;;;0.00;0.00;;;;;;;22.42;52.19;100885.72;5070611;28;20162;-73
2022/05/17 11:27:13;;;;;;;16.80;0.40;;;;;;;22.50;50.45;100877.06;5074230;28;20223;-72
2022/05/17 11:30:02;;;;;;;2.00;0.23;;;;;;;22.64;50.76;100886.75;5072973;28;20631;-73
2022/05/17 11:32:29;;;;;;;0.10;0.10;;;;;;;22.70;50.36;100879.63;5073011;28;20170;-72